Time;durP1;ratioP1;P1;durP2;ratioP2;P2;SDS_P1;SDS_P2;PMS_P1;PMS_P2;Temp;Humidity;BMP_temperature;BMP_pressure;BME280_temperature;BME280_humidity;BME280_pressure;Samples;Min_cycle;Max_cycle;Signal;HPM_P1;HPM_P2
2022/08/14 00:01:05;;;;;;;1.13;0.40;;;;;;;29.67;37.92;98564.69;5112275;28;20499;-59
2022/08/14 00:03:31;;;;;;;0.47;0.30;;;;;;;29.67;37.49;98573.16;5112410;28;20471;-59
2022/08/14 00:05:58;;;;;;;0.20;0.20;;;;;;;29.64;37.79;98562.75;5112202;28;20067;-59
2022/08/14 00:08:24;;;;;;;1.10;0.40;;;;;;;29.66;37.74;98569.53;5112212;28;20040;-59
2022/08/14 00:10:50;;;;;;;0.30;0.28;;;;;;;29.64;37.69;98559.94;5112015;28;20475;-59
2022/08/14 00:13:18;;;;;;;0.30;0.28;;;;;;;29.66;38.02;98557.47;5112242;28;20499;-59
2022/08/14 00:15:48;;;;;;;0.22;0.22;;;;;;;29.67;37.79;98553.41;5112270;28;20039;-59
2022/08/14 00:18:16;;;;;;;0.52;0.30;;;;;;;29.63;37.72;98544.28;5111952;28;20044;-59
2022/08/14 00:20:42;;;;;;;0.30;0.30;;;;;;;29.67;37.97;98542.16;5111535;28;20051;-59
2022/08/14 00:23:09;;;;;;;0.40;0.22;;;;;;;29.67;37.84;98537.28;5111858;28;20142;-58
2022/08/14 00:25:35;;;;;;;0.20;0.20;;;;;;;29.64;38.11;98526.13;5111915;28;20536;-59
2022/08/14 00:28:01;;;;;;;0.57;0.32;;;;;;;29.66;38.10;98538.53;5109865;28;20523;-59
2022/08/14 00:30:27;;;;;;;0.20;0.20;;;;;;;29.66;37.67;98538.53;5111923;28;20051;-59
2022/08/14 00:32:53;;;;;;;0.43;0.38;;;;;;;29.66;37.87;98540.56;5111990;28;20190;-59
2022/08/14 00:35:19;;;;;;;0.60;0.40;;;;;;;29.65;37.71;98528.50;5111927;28;20147;-59
2022/08/14 00:37:45;;;;;;;0.50;0.30;;;;;;;29.66;37.67;98529.31;5111797;28;20047;-59
2022/08/14 00:40:13;;;;;;;0.20;0.20;;;;;;;29.64;38.01;98526.13;5111969;28;20044;-59
2022/08/14 00:42:39;;;;;;;0.43;0.40;;;;;;;29.66;38.08;98521.63;5111714;28;20526;-59
2022/08/14 00:45:07;;;;;;;0.75;0.30;;;;;;;29.65;37.72;98511.59;5111842;28;20161;-59
2022/08/14 00:47:34;;;;;;;1.00;0.40;;;;;;;29.67;38.05;98513.97;5111542;28;20039;-59
2022/08/14 00:50:01;;;;;;;0.50;0.30;;;;;;;29.66;37.97;98507.53;5111792;28;20063;-59
2022/08/14 00:52:27;;;;;;;0.20;0.20;;;;;;;29.67;37.75;98505.50;5111608;28;20059;-59
2022/08/14 00:54:53;;;;;;;0.60;0.40;;;;;;;29.66;38.09;98506.75;5110249;28;20044;-59
2022/08/14 00:57:23;;;;;;;0.60;0.30;;;;;;;29.67;37.91;98511.13;5111392;28;20050;-59
2022/08/14 00:59:49;;;;;;;0.45;0.32;;;;;;;29.67;37.78;98505.50;5111644;28;20058;-59
2022/08/14 01:02:17;;;;;;;0.50;0.40;;;;;;;29.63;38.02;98494.34;5111507;28;20040;-59
2022/08/14 01:04:44;;;;;;;0.30;0.30;;;;;;;29.67;37.66;98497.03;5111461;28;20048;-59
2022/08/14 01:07:10;;;;;;;0.25;0.20;;;;;;;29.66;37.69;98490.63;5111329;28;20048;-58
2022/08/14 01:09:37;;;;;;;0.30;0.30;;;;;;;29.67;37.72;98491.41;5110975;28;20052;-56
2022/08/14 01:12:04;;;;;;;0.30;0.25;;;;;;;29.66;37.75;98496.25;5111376;28;20523;-56
2022/08/14 01:14:30;;;;;;;0.30;0.30;;;;;;;29.66;38.01;98487.81;5111313;28;20148;-56
2022/08/14 01:16:56;;;;;;;0.20;0.20;;;;;;;29.67;37.98;98491.41;5111109;28;20468;-56
2022/08/14 01:22:06;;;;;;;0.40;0.30;;;;;;;29.68;37.89;98490.94;5111086;28;20216;-56
2022/08/14 01:24:32;;;;;;;0.60;0.30;;;;;;;29.68;37.98;98487.34;5111234;28;20126;-56
2022/08/14 01:26:58;;;;;;;0.40;0.40;;;;;;;29.67;37.85;98480.13;5111129;28;20043;-57
2022/08/14 01:29:25;;;;;;;0.28;0.22;;;;;;;29.67;37.70;98483.75;5111125;28;20054;-56
2022/08/14 01:31:53;;;;;;;0.30;0.25;;;;;;;29.69;37.99;98483.28;5110744;28;20044;-56
2022/08/14 01:34:22;;;;;;;0.30;0.30;;;;;;;29.68;37.90;98479.66;5110944;28;21315;-56
2022/08/14 01:36:49;;;;;;;0.35;0.30;;;;;;;29.70;38.03;98482.03;5110504;28;20120;-56
2022/08/14 01:39:16;;;;;;;0.40;0.30;;;;;;;29.70;38.00;98473.56;5110934;28;20075;-57
2022/08/14 01:41:47;;;;;;;0.50;0.30;;;;;;;29.70;38.05;98468.72;5110729;28;20052;-57
2022/08/14 01:44:14;;;;;;;0.60;0.32;;;;;;;29.71;37.96;98473.09;5110845;28;20052;-57
2022/08/14 01:46:45;;;;;;;0.82;0.40;;;;;;;29.70;37.62;98462.28;5110721;28;20503;-57
2022/08/14 01:49:14;;;;;;;0.30;0.20;;;;;;;29.73;37.62;98462.19;5110736;28;20415;-56
2022/08/14 01:51:42;;;;;;;0.43;0.30;;;;;;;29.72;37.83;98452.16;5110676;28;20562;-56
2022/08/14 01:54:11;;;;;;;0.70;0.22;;;;;;;29.72;38.04;98454.97;5110652;28;20039;-57
2022/08/14 01:56:38;;;;;;;0.40;0.20;;;;;;;29.72;37.84;98442.88;5110644;28;20062;-57
2022/08/14 01:59:31;;;;;;;0.55;0.30;;;;;;;29.71;37.49;98442.09;5110516;28;20051;-56
2022/08/14 02:01:59;;;;;;;0.43;0.30;;;;;;;29.73;37.83;98439.63;5110185;28;20058;-57
2022/08/14 02:04:29;;;;;;;0.73;0.43;;;;;;;29.73;37.75;98442.44;5110211;28;20063;-57
2022/08/14 02:06:55;;;;;;;0.30;0.30;;;;;;;29.74;37.78;98446.06;5110637;28;20044;-56
2022/08/14 02:09:20;;;;;;;0.60;0.40;;;;;;;29.74;38.01;98448.88;5110584;28;20047;-56
2022/08/14 02:11:46;;;;;;;0.70;0.47;;;;;;;29.74;37.75;98440.41;5110300;28;20043;-56
2022/08/14 02:14:13;;;;;;;0.20;0.20;;;;;;;29.75;37.94;98441.97;5110276;28;20503;-57
2022/08/14 02:16:44;;;;;;;0.30;0.25;;;;;;;29.75;37.67;98441.97;5110238;28;20052;-56
2022/08/14 02:19:16;;;;;;;0.32;0.30;;;;;;;29.74;37.68;98441.19;5110125;28;20051;-57
2022/08/14 02:21:44;;;;;;;0.60;0.40;;;;;;;29.72;37.95;98442.88;5109960;28;20128;-57
2022/08/14 02:24:10;;;;;;;0.30;0.30;;;;;;;29.74;37.85;98434.78;5110103;28;20510;-57
2022/08/14 02:26:38;;;;;;;0.47;0.32;;;;;;;29.75;37.73;98439.16;5110245;28;20066;-56
2022/08/14 02:29:16;;;;;;;0.35;0.30;;;;;;;29.75;37.93;98430.72;5110232;28;20050;-56
2022/08/14 02:31:44;;;;;;;0.70;0.30;;;;;;;29.76;37.96;98438.69;5110259;28;20126;-56
2022/08/14 02:34:15;;;;;;;0.45;0.30;;;;;;;29.76;37.50;98437.91;5109916;28;20100;-57
2022/08/14 02:36:41;;;;;;;0.20;0.20;;;;;;;29.75;37.56;98436.34;5109905;28;20503;-57
2022/08/14 02:39:09;;;;;;;0.55;0.40;;;;;;;29.75;37.89;98437.13;5110010;28;20040;-56
2022/08/14 02:41:35;;;;;;;0.47;0.30;;;;;;;29.76;38.00;98440.72;5109458;28;20392;-57
2022/08/14 02:44:03;;;;;;;0.32;0.30;;;;;;;29.77;37.98;98440.25;5109748;28;20051;-57
2022/08/14 02:46:29;;;;;;;0.35;0.30;;;;;;;29.76;37.63;98438.69;5109879;28;20062;-57
2022/08/14 02:48:55;;;;;;;0.65;0.30;;;;;;;29.76;37.55;98449.19;5109906;28;20122;-56
2022/08/14 02:51:21;;;;;;;0.47;0.40;;;;;;;29.77;37.75;98447.94;5109876;28;20051;-57
2022/08/14 02:53:46;;;;;;;0.50;0.38;;;;;;;29.76;37.65;98449.19;5109692;28;20044;-56
2022/08/14 02:56:14;;;;;;;0.30;0.30;;;;;;;29.76;37.94;98443.56;5109734;28;20040;-57
2022/08/14 02:58:45;;;;;;;0.68;0.43;;;;;;;29.77;37.99;98447.94;5109425;28;20079;-56
2022/08/14 03:01:11;;;;;;;0.38;0.32;;;;;;;29.77;37.49;98445.13;5109573;28;20047;-56
2022/08/14 03:03:37;;;;;;;0.20;0.20;;;;;;;29.77;37.65;98436.66;5109695;28;20059;-56
2022/08/14 03:06:08;;;;;;;0.45;0.30;;;;;;;29.78;37.57;98438.22;5109617;28;20043;-56
2022/08/14 03:08:36;;;;;;;0.43;0.30;;;;;;;29.77;37.91;98439.47;5109668;28;20545;-57
2022/08/14 03:11:08;;;;;;;0.50;0.40;;;;;;;29.76;37.54;98433.06;5109520;28;20044;-57
2022/08/14 03:13:41;;;;;;;0.57;0.33;;;;;;;29.77;37.70;98425.38;5109562;28;20044;-56
2022/08/14 03:16:09;;;;;;;0.50;0.40;;;;;;;29.77;37.43;98420.53;5109598;28;20048;-56
2022/08/14 03:18:41;;;;;;;0.32;0.30;;;;;;;29.78;37.92;98412.84;5112664;28;20051;-56
2022/08/14 03:21:08;;;;;;;0.35;0.30;;;;;;;29.79;37.66;98406.78;5112998;28;20050;-57
2022/08/14 03:23:34;;;;;;;0.20;0.20;;;;;;;29.79;37.84;98411.59;5112819;28;20473;-57
2022/08/14 03:26:02;;;;;;;0.32;0.30;;;;;;;29.79;37.89;98406.78;5112923;28;20522;-57
2022/08/14 03:28:28;;;;;;;0.30;0.25;;;;;;;29.79;37.89;98405.97;5113086;28;20069;-57
2022/08/14 03:30:54;;;;;;;0.10;0.10;;;;;;;29.78;37.85;98407.22;5113074;28;20140;-56
2022/08/14 03:33:20;;;;;;;0.30;0.30;;;;;;;29.78;37.54;98405.19;5112886;28;20042;-56
2022/08/14 03:35:45;;;;;;;0.28;0.28;;;;;;;29.78;37.71;98398.75;5112802;28;20044;-57
2022/08/14 03:38:12;;;;;;;0.52;0.38;;;;;;;29.80;37.82;98399.13;5112889;28;20456;-57
2022/08/14 03:40:39;;;;;;;0.52;0.40;;;;;;;29.79;37.71;98397.50;5112792;28;20076;-57
2022/08/14 03:43:09;;;;;;;0.43;0.30;;;;;;;29.79;37.72;98380.59;5112859;28;20460;-56
2022/08/14 03:45:36;;;;;;;0.30;0.28;;;;;;;29.79;37.48;98383.41;5112704;28;20055;-56
2022/08/14 03:48:04;;;;;;;0.50;0.30;;;;;;;29.79;37.77;98394.69;5112753;28;20050;-56
2022/08/14 03:50:31;;;;;;;0.30;0.30;;;;;;;29.79;37.68;98394.69;5112668;28;20035;-57
2022/08/14 03:52:58;;;;;;;1.35;0.40;;;;;;;29.79;37.92;98411.59;5112489;28;20051;-57
2022/08/14 03:55:23;;;;;;;0.32;0.25;;;;;;;29.79;37.95;98405.97;5112454;28;20050;-56
2022/08/14 03:57:49;;;;;;;0.30;0.25;;;;;;;29.79;37.52;98398.31;5112508;28;20051;-56
2022/08/14 04:00:15;;;;;;;0.40;0.30;;;;;;;29.78;37.52;98387.50;5112545;28;20515;-56
2022/08/14 04:02:41;;;;;;;0.32;0.28;;;;;;;29.78;37.77;98385.47;5112327;28;20437;-57
2022/08/14 04:05:09;;;;;;;0.68;0.30;;;;;;;29.79;37.45;98384.22;5112356;28;20096;-57
2022/08/14 04:07:34;;;;;;;0.20;0.20;;;;;;;29.79;37.97;98386.25;5112247;28;20058;-56
2022/08/14 04:10:00;;;;;;;0.70;0.30;;;;;;;29.79;37.82;98383.41;5112346;28;20055;-57
2022/08/14 04:12:26;;;;;;;0.60;0.40;;;;;;;29.80;37.42;98376.56;5112234;28;20047;-56
2022/08/14 04:14:51;;;;;;;0.30;0.30;;;;;;;29.81;37.53;98369.66;5112396;28;20039;-56
2022/08/14 04:17:18;;;;;;;1.38;0.35;;;;;;;29.80;37.82;98374.53;5112200;28;20067;-57
2022/08/14 04:19:45;;;;;;;0.30;0.30;;;;;;;29.80;37.76;98370.91;5112039;28;20036;-56
2022/08/14 04:22:12;;;;;;;0.50;0.40;;;;;;;29.80;37.79;98387.84;5111899;28;20495;-57
2022/08/14 04:24:38;;;;;;;0.45;0.30;;;;;;;29.79;37.78;98377.78;5111924;28;20050;-56
2022/08/14 04:27:07;;;;;;;0.50;0.30;;;;;;;29.79;37.80;98387.06;5111972;28;20044;-57
2022/08/14 04:29:37;;;;;;;0.25;0.25;;;;;;;29.78;37.94;98393.13;5111580;28;20559;-56
2022/08/14 04:32:03;;;;;;;0.32;0.32;;;;;;;29.79;37.68;98400.34;5111993;28;20090;-56
2022/08/14 04:34:28;;;;;;;0.30;0.25;;;;;;;29.79;37.53;98392.69;5093566;28;20418;-57
2022/08/14 04:45:09;;;;;;;0.60;0.30;;;;;;;29.80;37.69;98385.03;5112112;28;20104;-57
2022/08/14 04:50:18;;;;;;;0.30;0.30;;;;;;;29.80;37.47;98379.38;5110168;28;20105;-57
2022/08/14 04:52:48;;;;;;;0.50;0.30;;;;;;;29.79;37.77;98384.22;5111740;28;20043;-56
2022/08/14 04:55:13;;;;;;;0.70;0.40;;;;;;;29.77;37.88;98383.88;5111660;28;20044;-57
2022/08/14 04:57:39;;;;;;;0.47;0.40;;;;;;;29.78;37.79;98407.22;5111666;28;20419;-57
2022/08/14 05:00:06;;;;;;;0.65;0.30;;;;;;;29.80;37.72;98418.84;5111482;28;20130;-57
2022/08/14 05:02:33;;;;;;;0.40;0.30;;;;;;;29.79;37.54;98425.69;5111363;28;20134;-57
2022/08/14 05:04:58;;;;;;;0.20;0.20;;;;;;;29.80;37.76;98432.94;5111502;28;20731;-56
2022/08/14 05:07:24;;;;;;;0.30;0.30;;;;;;;29.80;37.94;98444.22;5111518;28;20039;-56
2022/08/14 05:09:50;;;;;;;0.38;0.30;;;;;;;29.81;37.90;98457.06;5111506;28;20051;-57
2022/08/14 05:12:15;;;;;;;0.65;0.40;;;;;;;29.80;37.50;98455.50;5111403;28;20085;-56
2022/08/14 05:14:40;;;;;;;0.20;0.20;;;;;;;29.80;37.61;98467.56;5111228;28;20504;-57
2022/08/14 05:17:06;;;;;;;0.50;0.35;;;;;;;29.79;37.82;98465.97;5111407;28;20495;-57
2022/08/14 05:19:31;;;;;;;0.40;0.40;;;;;;;29.81;37.84;98462.69;5111112;28;20055;-56
2022/08/14 05:21:57;;;;;;;0.20;0.20;;;;;;;29.80;37.57;98455.50;5111033;28;20468;-57
2022/08/14 05:24:22;;;;;;;0.75;0.40;;;;;;;29.80;37.76;98445.00;5110942;28;20055;-57
2022/08/14 05:26:48;;;;;;;0.60;0.40;;;;;;;29.80;37.85;98444.22;5111213;28;20126;-57
2022/08/14 05:29:15;;;;;;;1.40;0.40;;;;;;;29.81;37.78;98435.28;5111221;28;20067;-57
2022/08/14 05:31:40;;;;;;;0.20;0.20;;;;;;;29.81;37.85;98434.50;5111060;28;20098;-57
2022/08/14 05:34:07;;;;;;;0.40;0.30;;;;;;;29.79;37.72;98437.78;5111114;28;20574;-57
2022/08/14 05:36:33;;;;;;;0.50;0.40;;;;;;;29.81;37.52;98452.22;5110939;28;20039;-57
2022/08/14 05:38:59;;;;;;;0.30;0.30;;;;;;;29.81;37.67;98454.25;5110858;28;20051;-56
2022/08/14 05:41:24;;;;;;;0.40;0.30;;;;;;;29.82;37.81;98455.81;5110243;28;20577;-57
2022/08/14 05:43:50;;;;;;;0.30;0.30;;;;;;;29.81;37.54;98440.16;5110786;28;20039;-56
2022/08/14 05:46:17;;;;;;;0.30;0.30;;;;;;;29.82;37.91;98450.16;5110926;28;20839;-57
2022/08/14 05:48:47;;;;;;;0.20;0.20;;;;;;;29.80;37.46;98452.69;5110912;28;20039;-57
2022/08/14 05:51:13;;;;;;;0.30;0.30;;;;;;;29.80;37.72;98456.28;5110695;28;20079;-57
2022/08/14 05:53:39;;;;;;;0.30;0.30;;;;;;;29.81;37.65;98459.88;5110893;28;20080;-57
2022/08/14 05:56:04;;;;;;;0.38;0.30;;;;;;;29.81;37.89;98476.78;5110911;28;20039;-56
2022/08/14 05:58:30;;;;;;;0.43;0.28;;;;;;;29.82;37.53;98484.78;5110415;28;20096;-56
2022/08/14 06:00:56;;;;;;;0.50;0.35;;;;;;;29.81;37.70;98491.69;5110436;28;20044;-57
2022/08/14 06:03:22;;;;;;;0.30;0.25;;;;;;;29.82;37.97;98510.16;5110264;28;20054;-57
2022/08/14 06:05:51;;;;;;;0.30;0.30;;;;;;;29.82;37.98;98521.44;5110672;28;20050;-56
2022/08/14 06:08:28;;;;;;;0.15;0.15;;;;;;;29.79;38.05;98546.91;5110631;28;20118;-56
2022/08/14 06:11:01;;;;;;;0.32;0.30;;;;;;;29.78;37.60;98542.53;5110434;28;20040;-57
2022/08/14 06:13:27;;;;;;;0.22;0.22;;;;;;;29.82;37.73;98562.94;5110405;28;20051;-57
2022/08/14 06:15:52;;;;;;;0.40;0.30;;;;;;;29.81;37.59;98578.28;5110276;28;20348;-57
2022/08/14 06:18:18;;;;;;;0.30;0.30;;;;;;;29.82;37.76;98585.50;5110453;28;20043;-56
2022/08/14 06:20:43;;;;;;;0.52;0.30;;;;;;;29.81;38.03;98592.38;5110146;28;20055;-56
2022/08/14 06:23:09;;;;;;;0.60;0.40;;;;;;;29.81;37.75;98617.75;5110019;28;20046;-56
2022/08/14 06:25:35;;;;;;;0.70;0.50;;;;;;;29.81;37.90;98629.03;5109985;28;20053;-56
2022/08/14 06:28:00;;;;;;;0.73;0.30;;;;;;;29.81;37.63;98648.75;5110087;28;20039;-56
2022/08/14 06:30:28;;;;;;;0.45;0.38;;;;;;;29.82;38.18;98668.03;5109966;28;20530;-57
2022/08/14 06:32:54;;;;;;;0.30;0.30;;;;;;;29.80;38.09;98689.47;5110035;28;20054;-56
2022/08/14 06:35:21;;;;;;;0.45;0.40;;;;;;;29.81;37.66;98705.16;5109976;28;20040;-56
2022/08/14 06:37:53;;;;;;;0.50;0.30;;;;;;;29.80;38.06;98721.28;5109972;28;20426;-56
2022/08/14 06:40:22;;;;;;;0.65;0.32;;;;;;;29.81;38.15;98738.97;5109672;28;20054;-57
2022/08/14 06:42:48;;;;;;;0.32;0.30;;;;;;;29.80;37.63;98752.28;5109930;28;20538;-57
2022/08/14 06:45:15;;;;;;;0.30;0.30;;;;;;;29.82;37.85;98768.75;5110005;28;20047;-56
2022/08/14 06:47:43;;;;;;;0.85;0.30;;;;;;;29.81;38.09;98770.00;5109743;28;20507;-57
2022/08/14 06:50:11;;;;;;;0.52;0.32;;;;;;;29.80;37.90;98751.50;5109820;28;20054;-57
2022/08/14 06:52:38;;;;;;;0.80;0.40;;;;;;;29.81;38.03;98738.97;5108199;28;20048;-57
2022/08/14 06:55:08;;;;;;;0.47;0.38;;;;;;;29.80;37.64;98715.63;5109669;28;20055;-57
2022/08/14 06:57:42;;;;;;;0.32;0.32;;;;;;;29.79;37.77;98691.50;5109738;28;20055;-57
2022/08/14 07:00:18;;;;;;;0.70;0.50;;;;;;;29.81;37.90;98716.41;5109711;28;20429;-57
2022/08/14 07:05:46;;;;;;;0.52;0.40;;;;;;;29.80;37.61;98726.13;5109750;28;20058;-57
2022/08/14 07:08:17;;;;;;;1.20;0.50;;;;;;;29.80;38.09;98740.22;5107359;28;20086;-56
2022/08/14 07:10:44;;;;;;;0.60;0.40;;;;;;;29.80;37.87;98771.25;5109703;28;20067;-57
2022/08/14 07:13:13;;;;;;;0.40;0.30;;;;;;;29.79;38.02;98770.44;5109524;28;20441;-57
2022/08/14 07:15:39;;;;;;;0.60;0.43;;;;;;;29.81;38.05;98761.53;5109206;28;20040;-56
2022/08/14 07:18:06;;;;;;;0.45;0.40;;;;;;;29.82;38.03;98768.75;5109323;28;20086;-56
2022/08/14 07:20:32;;;;;;;0.35;0.32;;;;;;;29.80;37.70;98768.41;5109293;28;20050;-56
2022/08/14 07:23:03;;;;;;;0.60;0.40;;;;;;;29.81;38.13;98764.34;5109007;28;20469;-57
2022/08/14 07:25:28;;;;;;;0.52;0.30;;;;;;;29.81;38.13;98779.22;5109230;28;20090;-57
2022/08/14 07:27:54;;;;;;;0.95;0.45;;;;;;;29.81;37.79;98798.97;5109341;28;20040;-56
2022/08/14 07:30:20;;;;;;;0.38;0.38;;;;;;;29.80;37.80;98805.06;5109287;28;20506;-56
2022/08/14 07:32:45;;;;;;;0.30;0.30;;;;;;;29.81;38.11;98795.38;5109427;28;20051;-56
2022/08/14 07:35:11;;;;;;;0.50;0.40;;;;;;;29.81;37.88;98787.69;5109270;28;20044;-56
2022/08/14 07:37:36;;;;;;;0.40;0.40;;;;;;;29.80;38.13;98782.50;5109388;28;20046;-57
2022/08/14 07:40:03;;;;;;;0.63;0.43;;;;;;;29.80;37.83;98783.31;5109286;28;20040;-57
2022/08/14 07:42:31;;;;;;;0.70;0.40;;;;;;;29.80;38.02;98779.69;5107056;28;20138;-56
2022/08/14 07:44:57;;;;;;;0.25;0.20;;;;;;;29.80;37.97;98766.38;5109219;28;20466;-56
2022/08/14 07:47:23;;;;;;;0.55;0.40;;;;;;;29.80;37.80;98751.50;5109047;28;20385;-57
2022/08/14 07:50:01;;;;;;;0.73;0.40;;;;;;;29.79;37.93;98772.44;5109180;28;20051;-57
2022/08/14 07:52:27;;;;;;;0.57;0.40;;;;;;;29.81;37.83;98778.44;5109172;28;20079;-56
2022/08/14 07:54:53;;;;;;;0.30;0.30;;;;;;;29.81;37.65;98792.53;5108990;28;20032;-56
2022/08/14 07:57:19;;;;;;;0.63;0.40;;;;;;;29.79;38.00;98807.09;5108918;28;20533;-56
2022/08/14 07:59:46;;;;;;;0.60;0.40;;;;;;;29.80;38.23;98819.94;5108832;28;20043;-56
2022/08/14 08:02:14;;;;;;;0.47;0.40;;;;;;;29.80;37.98;98839.69;5108765;28;20138;-57
2022/08/14 08:04:43;;;;;;;0.75;0.40;;;;;;;29.76;37.76;98835.38;5112076;28;20042;-57
2022/08/14 08:07:09;;;;;;;0.38;0.30;;;;;;;29.79;38.18;98826.84;5112435;28;20071;-57
2022/08/14 08:09:35;;;;;;;0.30;0.30;;;;;;;29.80;37.97;98821.97;5112337;28;20051;-57
2022/08/14 08:12:02;;;;;;;1.20;0.50;;;;;;;29.79;38.10;98835.28;5112064;28;20066;-56
2022/08/14 08:14:28;;;;;;;0.40;0.40;;;;;;;29.78;38.14;98873.16;5112345;28;20143;-57
2022/08/14 08:16:55;;;;;;;0.75;0.45;;;;;;;29.79;38.00;98888.84;5112347;28;20123;-57
2022/08/14 08:19:20;;;;;;;0.30;0.28;;;;;;;29.80;37.69;98884.00;5112121;28;20654;-57
2022/08/14 08:21:46;;;;;;;0.68;0.40;;;;;;;29.81;38.11;98877.13;5111883;28;20048;-56
2022/08/14 08:24:11;;;;;;;0.40;0.30;;;;;;;29.81;38.15;98879.94;5112159;28;20574;-57
2022/08/14 08:26:36;;;;;;;0.32;0.32;;;;;;;29.80;38.24;98879.16;5112048;28;20464;-57
2022/08/14 08:29:02;;;;;;;0.60;0.30;;;;;;;29.81;37.86;98863.81;5109821;28;20491;-56
2022/08/14 08:31:28;;;;;;;0.60;0.40;;;;;;;29.80;38.24;98872.72;5111907;28;20042;-56
2022/08/14 08:33:56;;;;;;;0.93;0.50;;;;;;;29.81;38.23;98882.75;5111984;28;20487;-56
2022/08/14 08:36:22;;;;;;;1.42;0.50;;;;;;;29.80;37.93;98887.63;5112071;28;20039;-56
2022/08/14 08:38:49;;;;;;;0.57;0.38;;;;;;;29.78;38.23;98906.19;5111864;28;20047;-56
2022/08/14 08:41:15;;;;;;;0.73;0.47;;;;;;;29.80;37.82;98915.03;5111637;28;20063;-56
2022/08/14 08:43:40;;;;;;;1.08;0.50;;;;;;;29.81;37.99;98919.41;5111702;28;20079;-56
2022/08/14 08:46:08;;;;;;;0.60;0.50;;;;;;;29.81;37.97;98922.22;5109866;28;20434;-56
2022/08/14 08:48:47;;;;;;;0.90;0.50;;;;;;;29.80;38.08;98934.75;5111815;28;20101;-56
2022/08/14 08:51:29;;;;;;;0.60;0.40;;;;;;;29.81;38.21;98956.84;5093577;28;20031;-57
2022/08/14 08:53:58;;;;;;;0.88;0.40;;;;;;;29.81;38.14;98953.25;5111849;28;20495;-56
2022/08/14 08:56:39;;;;;;;0.65;0.35;;;;;;;29.80;38.13;98958.09;5111614;28;20036;-56
2022/08/14 08:59:19;;;;;;;0.30;0.30;;;;;;;29.79;37.98;98964.97;5111418;28;20032;-57
2022/08/14 09:01:50;;;;;;;0.52;0.40;;;;;;;29.77;37.88;98958.19;5111648;28;20035;-57
2022/08/14 09:04:18;;;;;;;0.77;0.50;;;;;;;29.80;38.28;98960.91;5110718;28;20093;-57
2022/08/14 09:06:45;;;;;;;0.90;0.50;;;;;;;29.80;38.23;98960.13;5111368;28;20043;-56
2022/08/14 09:09:26;;;;;;;0.98;0.47;;;;;;;29.79;37.98;98956.53;5111532;28;20510;-56
2022/08/14 09:11:54;;;;;;;0.47;0.45;;;;;;;29.80;38.37;98951.66;5111562;28;20487;-56
2022/08/14 09:14:24;;;;;;;0.50;0.40;;;;;;;29.79;37.91;98944.44;5110411;28;20119;-56
2022/08/14 09:16:50;;;;;;;0.55;0.40;;;;;;;29.79;38.31;98950.06;5111514;28;20060;-56
2022/08/14 09:19:17;;;;;;;1.55;0.47;;;;;;;29.79;37.83;98950.06;5111258;28;20039;-57
2022/08/14 09:21:42;;;;;;;0.90;0.52;;;;;;;29.76;37.99;98945.34;5110910;28;20056;-57
2022/08/14 09:24:08;;;;;;;0.88;0.50;;;;;;;29.79;38.28;98979.06;5111287;28;20054;-56
2022/08/14 09:26:35;;;;;;;0.60;0.40;;;;;;;29.80;38.23;98996.78;5111121;28;20056;-57
2022/08/14 09:29:01;;;;;;;0.85;0.40;;;;;;;29.79;37.97;98990.34;5111055;28;20044;-56
2022/08/14 09:31:28;;;;;;;0.63;0.40;;;;;;;29.79;38.17;98990.34;5111196;28;20036;-56
2022/08/14 09:34:04;;;;;;;1.35;0.60;;;;;;;29.79;38.07;98998.00;5110897;28;20055;-56
2022/08/14 09:36:48;;;;;;;0.90;0.40;;;;;;;29.79;38.31;98995.19;5111042;28;20054;-57
2022/08/14 09:39:28;;;;;;;0.80;0.50;;;;;;;29.79;38.07;98981.06;5110991;28;20498;-57
2022/08/14 09:42:13;;;;;;;0.35;0.28;;;;;;;29.78;38.20;98960.56;5091168;28;20489;-57
2022/08/14 09:44:55;;;;;;;0.73;0.50;;;;;;;29.79;38.18;98972.63;5110817;28;20047;-57
2022/08/14 09:47:40;;;;;;;0.50;0.40;;;;;;;29.77;38.22;98980.75;5110709;28;20560;-57
2022/08/14 09:50:18;;;;;;;0.80;0.50;;;;;;;29.78;38.00;98993.59;5110936;28;20047;-57
2022/08/14 09:53:02;;;;;;;0.77;0.47;;;;;;;29.78;38.40;98988.75;5110726;28;20096;-56
2022/08/14 09:55:32;;;;;;;1.75;0.50;;;;;;;29.79;38.21;98964.16;5110331;28;20098;-56
2022/08/14 09:58:18;;;;;;;0.40;0.30;;;;;;;29.76;38.07;98939.69;5110502;28;20052;-57
2022/08/14 10:00:52;;;;;;;0.50;0.40;;;;;;;29.78;38.00;98937.22;5110397;28;20411;-56
2022/08/14 10:03:33;;;;;;;1.05;0.50;;;;;;;29.75;38.18;98926.84;5110511;28;20047;-57
2022/08/14 10:06:04;;;;;;;0.52;0.40;;;;;;;29.78;38.47;98920.28;5110367;28;20052;-56
2022/08/14 10:08:45;;;;;;;0.77;0.40;;;;;;;29.76;38.47;98929.22;5110442;28;20148;-56
2022/08/14 10:11:34;;;;;;;0.82;0.45;;;;;;;29.72;38.44;98925.72;5110562;28;20044;-57
2022/08/14 10:14:15;;;;;;;0.68;0.43;;;;;;;29.77;38.10;98913.09;5110260;28;20048;-56
2022/08/14 10:16:43;;;;;;;0.77;0.43;;;;;;;29.77;38.11;98910.25;5110429;28;20048;-57
2022/08/14 10:19:12;;;;;;;1.05;0.47;;;;;;;29.76;38.48;98901.00;5110416;28;20044;-56
2022/08/14 10:21:39;;;;;;;0.70;0.30;;;;;;;29.76;38.01;98906.66;5110077;28;20077;-57
2022/08/14 10:24:08;;;;;;;0.93;0.50;;;;;;;29.73;38.35;98895.50;5110227;28;20044;-56
2022/08/14 10:26:34;;;;;;;0.77;0.40;;;;;;;29.77;38.19;98898.97;5109877;28;20476;-56
2022/08/14 10:29:11;;;;;;;0.50;0.35;;;;;;;29.76;38.04;98880.50;5110119;28;20039;-56
2022/08/14 10:31:37;;;;;;;1.02;0.43;;;;;;;29.77;38.27;98867.97;5110074;28;20051;-57
2022/08/14 10:34:07;;;;;;;1.00;0.50;;;;;;;29.77;38.46;98882.06;5109984;28;20047;-57
2022/08/14 10:36:38;;;;;;;1.13;0.47;;;;;;;29.76;38.15;98889.75;5109982;28;20048;-57
2022/08/14 10:39:19;;;;;;;0.75;0.40;;;;;;;29.77;38.40;98896.16;5110101;28;20121;-57
2022/08/14 10:41:45;;;;;;;0.40;0.30;;;;;;;29.76;38.32;98880.50;5110064;28;20350;-57
2022/08/14 10:44:24;;;;;;;0.60;0.50;;;;;;;29.75;38.01;98854.34;5109852;28;20055;-57
2022/08/14 10:46:49;;;;;;;0.60;0.50;;;;;;;29.77;38.36;98836.97;5109774;28;20044;-57
2022/08/14 10:49:23;;;;;;;0.50;0.47;;;;;;;29.77;38.30;98820.84;5109915;28;20146;-56
2022/08/14 10:52:07;;;;;;;0.68;0.52;;;;;;;29.77;38.11;98822.88;5109764;28;20818;-56
2022/08/14 10:54:36;;;;;;;1.10;0.50;;;;;;;29.77;38.18;98817.22;5109686;28;20535;-57
2022/08/14 10:57:20;;;;;;;0.75;0.60;;;;;;;29.76;38.42;98813.63;5109606;28;20044;-60
2022/08/14 10:59:48;;;;;;;0.50;0.40;;;;;;;29.77;38.06;98812.38;5109824;28;20096;-59
2022/08/14 11:02:31;;;;;;;0.52;0.40;;;;;;;29.76;38.21;98801.56;5109731;28;20423;-59
2022/08/14 11:04:57;;;;;;;0.47;0.38;;;;;;;29.76;38.45;98796.72;5109764;28;20103;-59
2022/08/14 11:07:24;;;;;;;0.30;0.30;;;;;;;29.77;38.56;98795.47;5109660;28;20040;-59
2022/08/14 11:10:05;;;;;;;0.75;0.50;;;;;;;29.77;38.50;98789.81;5109660;28;20411;-59
2022/08/14 11:12:46;;;;;;;0.88;0.52;;;;;;;29.77;38.50;98780.59;5107886;28;20496;-59
2022/08/14 11:15:13;;;;;;;0.60;0.40;;;;;;;29.78;38.16;98774.47;5109810;28;20491;-59
2022/08/14 11:17:39;;;;;;;0.60;0.40;;;;;;;29.77;38.34;98766.47;5109541;28;20415;-59
2022/08/14 11:20:07;;;;;;;0.85;0.50;;;;;;;29.77;38.48;98772.13;5109230;28;20487;-59
2022/08/14 11:22:33;;;;;;;0.93;0.50;;;;;;;29.78;38.38;98751.94;5109156;28;20511;-59
2022/08/14 11:25:04;;;;;;;0.57;0.38;;;;;;;29.79;38.14;98738.63;5109374;28;20036;-59
2022/08/14 11:27:31;;;;;;;0.88;0.52;;;;;;;29.78;38.09;98734.22;5109487;28;20035;-59
2022/08/14 11:30:02;;;;;;;0.47;0.30;;;;;;;29.78;38.33;98746.28;5109335;28;20051;-59
2022/08/14 11:32:29;;;;;;;0.37;0.30;;;;;;;29.79;38.39;98755.53;5109437;28;20048;-59
2022/08/14 11:34:57;;;;;;;0.55;0.40;;;;;;;29.79;38.14;98753.53;5109292;28;20372;-59
2022/08/14 11:37:23;;;;;;;0.50;0.43;;;;;;;29.77;38.47;98753.19;5109347;28;20408;-59
2022/08/14 11:39:48;;;;;;;0.52;0.32;;;;;;;29.79;38.56;98744.25;5112786;28;20044;-59
2022/08/14 11:42:24;;;;;;;0.50;0.30;;;;;;;29.79;38.53;98752.72;5112746;28;20051;-59
2022/08/14 11:44:51;;;;;;;0.43;0.40;;;;;;;29.76;38.18;98736.72;5112826;28;20503;-59
2022/08/14 11:47:18;;;;;;;1.00;0.60;;;;;;;29.80;38.58;98726.13;5112758;28;20039;-59
2022/08/14 11:49:48;;;;;;;0.85;0.45;;;;;;;29.80;38.50;98712.81;5112626;28;20079;-59
2022/08/14 11:52:19;;;;;;;0.40;0.30;;;;;;;29.80;38.30;98706.41;5112668;28;20495;-59
2022/08/14 11:54:55;;;;;;;0.88;0.30;;;;;;;29.79;38.54;98697.16;5112585;28;20507;-59
2022/08/14 11:57:21;;;;;;;0.77;0.43;;;;;;;29.80;38.23;98676.16;5112507;28;20071;-58